• Join FlightAware (Why Join?)
  • Login
  • US Flag 
11:28AM EDT


 

Airport Tracker/Info


-or-


 

Live Flight TrackerFlight Track Log ✈ SWA1276 ✈ 10-Apr-2013 ✈ KLAX - KHOU

Flight Track Log - Related Links

Times and Time Zones

All times are in EDT time to prevent confusion due to time zone crossing. See the SWA1276 flight status page for this flight to view local times or setup timezone preferences in your user account.

Time Position Orientation Groundspeed Altitude Reporting Facility
EDT Latitude Longitude Course Direction KTS MPH feet Rate Location/Type
03:44PM 33.9500 -118.4500 244° Southwest 158 182 1,500  Level Southern California TRACON
03:44PM 33.9378 -118.4808 244° Southwest 179 206 2,100 1,620 Climbing Los Angeles Center
03:45PM 33.8861 -118.5367 222° Southwest 251 289 3,900 2,100 Climbing Los Angeles Center
03:46PM 33.8317 -118.5950 222° Southwest 277 319 6,500 3,120 Climbing Los Angeles Center
03:48PM 33.7453 -118.5786 171° South 302 348 10,500 3,120 Climbing Los Angeles Center
03:49PM 33.6883 -118.4936 129° Southeast 339 390 13,100 2,400 Climbing Los Angeles Center
03:50PM 33.6558 -118.3853 110° East 350 403 15,500 2,280 Climbing Los Angeles Center
03:51PM 33.6433 -118.2628 97° East 379 436 17,900 2,460 Climbing Los Angeles Center
03:52PM 33.6439 -118.1058 90° East 398 458 20,700 2,400 Climbing Los Angeles Center
03:53PM 33.6442 -117.9683 90° East 413 475 22,900 1,980 Climbing Los Angeles Center
03:54PM 33.6433 -117.8256 90° East 427 491 24,800 1,800 Climbing Los Angeles Center
03:55PM 33.6431 -117.6817 90° East 434 499 26,700 1,920 Climbing Los Angeles Center
03:56PM 33.6422 -117.5042 90° East 444 511 28,900 1,680 Climbing Los Angeles Center
03:57PM 33.6417 -117.3539 90° East 451 519 30,300 1,560 Climbing Los Angeles Center
03:58PM 33.6403 -117.2025 91° East 455 524 32,200 1,680 Climbing Los Angeles Center
03:59PM 33.6386 -117.0519 91° East 454 522 33,800 1,380 Climbing Los Angeles Center
04:00PM 33.6381 -116.9019 90° East 452 520 35,400 1,380 Climbing Los Angeles Center
04:01PM 33.6350 -116.7067 91° East 440 506 37,000 720 Climbing Los Angeles Center
04:02PM 33.6347 -116.5592 90° East 442 509 37,000  Level Los Angeles Center
04:03PM 33.6314 -116.4103 91° East 444 511 37,000  Level Los Angeles Center
04:04PM 33.6289 -116.2606 91° East 446 513 37,000  Level Los Angeles Center
04:05PM 33.6269 -116.1094 91° East 452 520 37,000  Level Los Angeles Center
04:06PM 33.6231 -115.9319 91° East 445 512 37,000  Level Los Angeles Center
04:07PM 33.6042 -115.7831 99° East 448 516 37,000  Level Los Angeles Center
04:08PM 33.5811 -115.6361 101° East 449 517 37,000  Level Los Angeles Center
04:09PM 33.5600 -115.4903 100° East 446 513 37,000  Level Los Angeles Center
04:11PM 33.5367 -115.3444 101° East 444 511 37,000  Level Los Angeles Center
04:12PM 33.5142 -115.1969 100° East 448 516 37,000  Level Los Angeles Center
04:13PM 33.4881 -115.0219 100° East 446 513 37,000  Level Los Angeles Center
04:14PM 33.4642 -114.8758 101° East 448 516 37,000  Level Los Angeles Center
04:15PM 33.4425 -114.7297 100° East 446 513 37,000  Level Los Angeles Center
04:16PM 33.4192 -114.5867 101° East 441 507 37,000  Level Los Angeles Center
04:16PM 33.4161 -114.5431 95° East 444 511 37,000  Level Albuquerque Center
04:17PM 33.3925 -114.3994 101° East 442 509 37,000  Level Albuquerque Center
04:18PM 33.3642 -114.2256 101° East 443 510 37,000  Level Albuquerque Center
04:19PM 33.3425 -114.0772 100° East 449 517 37,000  Level Albuquerque Center
04:20PM 33.3186 -113.9311 101° East 450 518 37,000  Level Albuquerque Center
04:21PM 33.2939 -113.7842 101° East 450 518 37,000  Level Albuquerque Center
04:22PM 33.2694 -113.6372 101° East 451 519 37,000  Level Albuquerque Center
04:23PM 33.2458 -113.4900 101° East 451 519 37,000  Level Albuquerque Center
04:24PM 33.2164 -113.3144 101° East 450 518 37,000  Level Albuquerque Center
04:25PM 33.1911 -113.1686 102° East 448 516 37,000  Level Albuquerque Center
04:26PM 33.1664 -113.0233 101° East 447 514 37,000  Level Albuquerque Center
04:27PM 33.1417 -112.8783 101° East 446 513 37,000  Level Albuquerque Center
04:28PM 33.1156 -112.7306 102° East 450 518 37,000  Level Albuquerque Center
04:29PM 33.0903 -112.5836 102° East 452 520 37,000  Level Albuquerque Center
04:31PM 33.0644 -112.4389 102° East 446 513 37,000  Level Albuquerque Center
04:32PM 33.0333 -112.2625 102° East 452 520 37,000  Level Albuquerque Center
04:33PM 33.0103 -112.1278 101° East 456 525 37,000  Level Albuquerque Center
04:34PM 32.9847 -111.9808 102° East 456 525 37,000  Level Albuquerque Center
04:35PM 32.9522 -111.8031 102° East 460 529 37,000  Level Albuquerque Center
04:36PM 32.9256 -111.6556 102° East 460 529 37,000  Level Albuquerque Center
04:37PM 32.8983 -111.5081 102° East 460 529 37,000  Level Albuquerque Center
04:38PM 32.8717 -111.3603 102° East 459 528 37,000  Level Albuquerque Center
04:39PM 32.8447 -111.2131 102° East 458 527 37,000  Level Albuquerque Center
04:40PM 32.8158 -111.0672 103° East 457 526 37,000  Level Albuquerque Center
04:41PM 32.7844 -110.8919 102° East 455 524 37,000  Level Albuquerque Center
04:42PM 32.7547 -110.7458 104° East 455 524 37,000  Level Albuquerque Center
04:43PM 32.7283 -110.5969 102° East 460 529 37,000  Level Albuquerque Center
04:44PM 32.6994 -110.4481 103° East 465 535 37,000  Level Albuquerque Center
04:45PM 32.6692 -110.3006 104° East 466 536 37,000  Level Albuquerque Center
04:46PM 32.6344 -110.1208 103° East 469 540 37,000  Level Albuquerque Center
04:47PM 32.6047 -109.9697 103° East 475 547 37,000  Level Albuquerque Center
04:48PM 32.5756 -109.8194 103° East 474 545 37,000  Level Albuquerque Center
04:49PM 32.5439 -109.6658 104° East 483 556 37,000  Level Albuquerque Center
04:50PM 32.5047 -109.4828 104° East 485 558 37,000  Level Albuquerque Center
04:51PM 32.4756 -109.3319 103° East 480 552 37,000  Level Albuquerque Center
04:52PM 32.4444 -109.1817 104° East 479 551 37,000  Level Albuquerque Center
04:53PM 32.4142 -109.0303 103° East 479 551 37,000  Level Albuquerque Center
04:54PM 32.3772 -108.8506 104° East 477 549 37,000  Level Albuquerque Center
04:55PM 32.3456 -108.7028 104° East 474 545 37,000  Level Albuquerque Center
04:56PM 32.3153 -108.5536 103° East 473 544 37,000  Level Albuquerque Center
04:57PM 32.2828 -108.3992 104° East 477 549 37,000  Level Albuquerque Center
04:58PM 32.2508 -108.2489 104° East 475 547 37,000  Level Albuquerque Center
04:59PM 32.2186 -108.0961 104° East 479 551 37,000  Level Albuquerque Center
05:00PM 32.1786 -107.9128 104° East 482 555 37,000  Level Albuquerque Center
05:02PM 32.1461 -107.7606 104° East 483 556 37,000  Level Albuquerque Center
05:03PM 32.1136 -107.6075 104° East 484 557 37,000  Level Albuquerque Center
05:04PM 32.0808 -107.4556 104° East 484 557 37,000  Level Albuquerque Center
05:05PM 32.0414 -107.2747 104° East 481 554 37,000  Level Albuquerque Center
05:06PM 32.0083 -107.1242 104° East 481 554 37,000  Level Albuquerque Center
05:07PM 31.9747 -106.9736 105° East 480 552 37,000  Level Albuquerque Center
05:08PM 31.9411 -106.8239 105° East 477 549 37,000  Level Albuquerque Center
05:09PM 31.9067 -106.6747 105° East 475 547 37,000  Level Albuquerque Center
05:10PM 31.8669 -106.5044 105° East 477 549 37,000  Level Albuquerque Center
05:11PM 31.8328 -106.3525 105° East 480 552 37,000  Level Albuquerque Center
05:12PM 31.7967 -106.2014 106° East 487 560 37,000  Level Albuquerque Center
05:13PM 31.7581 -106.0531 107° East 479 551 37,000  Level Albuquerque Center
05:14PM 31.7203 -105.9019 106° East 482 555 37,000  Level Albuquerque Center
05:15PM 31.6739 -105.7200 107° East 484 557 37,000  Level Albuquerque Center
05:16PM 31.6361 -105.5675 106° East 487 560 37,000  Level Albuquerque Center
05:17PM 31.5972 -105.4161 107° East 483 556 37,000  Level Albuquerque Center
05:18PM 31.5592 -105.2614 106° East 490 564 37,000  Level Albuquerque Center
05:19PM 31.5183 -105.1031 107° East 495 570 37,000  Level Albuquerque Center
05:20PM 31.4797 -104.9503 106° East 496 571 37,000  Level Albuquerque Center
05:21PM 31.4392 -104.7950 107° East 496 571 37,000  Level Albuquerque Center
05:22PM 31.3908 -104.6081 107° East 497 572 37,000  Level Albuquerque Center
05:24PM 31.3403 -104.4245 108° East  Level FlightAware Approximate
05:24PM 31.2967 -104.2733 108° East 496 571 37,000  Level Houston Center
05:25PM 31.2697 -104.1475 104° East 492 566 37,000  Level Albuquerque Center
05:26PM 31.2297 -103.9967 107° East 487 560 37,000  Level Albuquerque Center
05:27PM 31.1883 -103.8428 107° East 493 567 37,000  Level Albuquerque Center
05:28PM 31.1389 -103.6625 108° East 499 574 37,000  Level Albuquerque Center
05:29PM 31.0972 -103.5069 107° East 503 579 37,000  Level Albuquerque Center
05:30PM 31.0539 -103.3514 108° East 504 580 37,000  Level Albuquerque Center
05:32PM 31.0114 -103.1958 108° East 505 581 37,000  Level Albuquerque Center
05:33PM 30.9611 -103.0092 107° East 505 581 37,000  Level Albuquerque Center
05:34PM 30.9186 -102.8511 107° East 510 587 37,000  Level Albuquerque Center
05:35PM 30.8781 -102.6922 107° East 515 593 37,000 -60 Level Albuquerque Center
05:36PM 30.8381 -102.5367 107° East 510 587 36,900  Descending Albuquerque Center
05:37PM 30.7978 -102.3839 107° East 504 580 37,000  Climbing Albuquerque Center
05:38PM 30.7492 -102.1992 107° East 503 579 37,000  Level Albuquerque Center
05:39PM 30.7081 -102.0450 107° East 504 580 37,000  Level Albuquerque Center
05:40PM 30.6669 -101.8922 107° East 501 577 37,000  Level Albuquerque Center
05:41PM 30.6261 -101.7389 107° East 501 577 37,000  Level Albuquerque Center
05:42PM 30.5772 -101.5569 107° East 500 575 37,000  Level Houston Center
05:43PM 30.5375 -101.4044 107° East 497 572 37,000  Level Houston Center
05:44PM 30.4958 -101.2525 108° East 496 571 37,000  Level Houston Center
05:45PM 30.4544 -101.0997 107° East 496 571 37,000  Level Houston Center
05:46PM 30.4042 -100.9178 108° East 495 570 37,000  Level Houston Center
05:47PM 30.3622 -100.7686 108° East 490 564 37,000  Level Houston Center
05:48PM 30.3214 -100.6178 107° East 488 562 37,000  Level Houston Center
05:49PM 30.2797 -100.4683 108° East 487 560 37,000  Level Houston Center
05:50PM 30.2378 -100.3183 108° East 486 559 37,000  Level Houston Center
05:51PM 30.1958 -100.1667 108° East 483 556 37,000  Level Houston Center
05:52PM 30.1528 -100.0139 108° East 490 564 37,000  Level Houston Center
05:53PM 30.1089 -99.8611 108° East 498 573 37,000  Level Houston Center
05:54PM 30.0572 -99.6794 108° East 496 571 37,000  Level Houston Center
05:55PM 30.0128 -99.5261 108° East 501 577 37,000  Level Houston Center
05:56PM 29.9675 -99.3719 109° East 507 583 37,000  Level Houston Center
05:58PM 29.9225 -99.2167 108° East 512 589 37,000  Level Houston Center
05:59PM 29.8622 -99.0494 113° Southeast 508 585 37,000  Level Houston Center
06:00PM 29.8025 -98.8883 113° Southeast 507 583 37,000  Level Houston Center
06:01PM 29.7464 -98.7369 113° Southeast 512 589 37,000  Level Houston Center
06:02PM 29.6861 -98.5753 113° Southeast 510 587 37,000  Level Houston Center
06:03PM 29.6369 -98.4411 113° Southeast 509 586 37,000  Level Houston Center
06:04PM 29.5825 -98.2664 110° East 518 596 37,000  Level Houston Center
06:05PM 29.5292 -98.1014 110° East 512 589 37,000  Level Houston Center
06:06PM 29.4792 -97.9469 110° East 514 592 37,000 -540 Level Houston Center
06:07PM 29.4564 -97.7806 99° East 541 623 35,900 -1,740 Descending Houston Center
06:08PM 29.4417 -97.6103 96° East 543 625 33,500 -2,280 Descending Houston Center
06:09PM 29.4281 -97.4433 95° East 529 609 31,300 -2,160 Descending Houston Center
06:10PM 29.4142 -97.2817 96° East 515 593 29,100 -2,280 Descending Houston Center
06:11PM 29.3992 -97.0978 95° East 485 558 26,600 -2,160 Descending Houston Center
06:12PM 29.3858 -96.9522 96° East 464 534 24,700 -1,680 Descending Houston Center
06:13PM 29.3756 -96.8256 95° East 443 510 23,100 -1,800 Descending Houston Center
06:14PM 29.3622 -96.6761 96° East 413 475 21,000 -1,920 Descending Houston Center
06:15PM 29.3556 -96.6022 96° East 397 457 20,000 -1,560 Descending Houston Center
06:15PM 29.3506 -96.5511 96° East 397 457 19,400 -1,740 Descending Houston Center
06:16PM 29.3408 -96.4483 96° East 376 433 17,900 -1,500 Descending Houston Center
06:17PM 29.3481 -96.3350 86° East 370 426 16,700 -1,140 Descending Houston Center
06:17PM 29.3528 -96.3200 70° East 369 425 16,500 -1,020 Descending Houston Center
06:18PM 29.3844 -96.2206 70° East 376 433 15,700 -900 Descending Houston Center
06:18PM 29.3867 -96.2081 78° East 375 432 15,600 -1,020 Descending Houston Center
06:19PM 29.4169 -96.1117 70° East 369 425 14,700 -1,200 Descending Houston Center
06:19PM 29.4267 -96.0758 73° East 367 422 14,400 -1,020 Descending Houston Center
06:20PM 29.4511 -95.9950 71° East 359 413 13,700 -1,020 Descending Houston Center
06:20PM 29.4597 -95.9644 72° East 359 413 13,400 -1,020 Descending Houston Center
06:21PM 29.4836 -95.8881 70° East 351 404 12,700 -1,020 Descending Houston Center
06:21PM 29.4911 -95.8592 73° East 352 405 12,400 -1,140 Descending Houston Center
06:22PM 29.5142 -95.7839 71° East 347 399 11,600 -1,080 Descending Houston Center
06:22PM 29.5225 -95.7539 72° East 347 399 11,300 -1,380 Descending Houston Center
06:23PM 29.5450 -95.6794 71° East 338 389 10,200 -1,260 Descending Houston Center
06:23PM 29.5528 -95.6533 71° East 335 386 10,000 -1,320 Descending Houston Center
06:24PM 29.5758 -95.5797 70° East 315 362 8,900 -1,380 Descending Houston Center
06:24PM 29.5817 -95.5578 73° East 320 368 8,600 -1,500 Descending Houston Center
06:25PM 29.6028 -95.4828 72° East 313 360 7,400 -1,500 Descending Houston Center
06:25PM 29.6094 -95.4639 68° East 313 360 7,100 -660 Descending Houston Center
06:26PM 29.6161 -95.3994 83° East 264 304 6,800 -720 Descending Houston Center
06:27PM 29.6106 -95.3606 99° East 267 307 6,400 -720 Descending Houston Center
06:27PM 29.5908 -95.3306 127° Southeast 226 260 6,100 -900 Descending Houston Center
06:28PM 29.5689 -95.3067 137° Southeast 234 269 5,500 -1,020 Descending Houston Center
06:28PM 29.5464 -95.2806 135° Southeast 228 262 5,100 -780 Descending Houston Center
06:29PM 29.5256 -95.2578 136° Southeast 224 258 4,700 -840 Descending Houston Center
06:29PM 29.5022 -95.2331 137° Southeast 193 222 4,300 -900 Descending Houston Center
06:30PM 29.4878 -95.2169 136° Southeast 201 231 3,800 -1,320 Descending Houston Center
06:30PM 29.4767 -95.1858 112° Southeast 186 214 3,000 -1,380 Descending Houston Center
06:31PM 29.4914 -95.1556 61° Northeast 200 230 2,400 -840 Descending Houston Center
06:31PM 29.5083 -95.1411 37° Northeast 190 219 2,200 -240 Descending Houston Center
06:32PM 29.5347 -95.1511 342° North 196 226 2,200  Level Houston Center
06:32PM 29.5581 -95.1783 315° West 196 226 2,200 -540 Level Houston Center
06:33PM 29.5908 -95.2153 316° Northwest 166 191 1,400 -780 Descending Houston Center
06:34PM 29.6039 -95.2303 315° West 173 199 1,000 -720 Descending Houston Center
06:34PM 29.6167 -95.2458 313° West 122 140 700 -600 Descending Houston Center
06:35PM 29.6278 -95.2589 314° West 142 163 400 -420 Descending Houston Center
06:36PM 29.6514 -95.2853 316° Northwest 136 157 100 -300 Descending Houston Center